Tenants Harbor, Maine
Current Conditions -  °F | °C
As of 10:35 PM on Friday 28 Nov 2014 (Local Time) from KRKD Reporting Station
Few Clouds Few Clouds  
Wind Chill: 14°   Ceiling: Unl
Heat Index: 21°   Visibility: 10mi
Dew Point: 18°   Wind: 6mph
Humidity: 86%   Direction: 280°W
Pressure: 30.13"   Gusts: NA
Location:  43.97°N, 69.21°W
Report Text: KRKD 290335Z AUTO 28005KT 10SM FEW039 M06/M08 A3013 RMK AO1
Loading
Personal Weather Stations






























Interactive Weather Map New forecast layout! Learn more

10-Day Weather Forecast

Advertisements
Track Severe Weather on mobile